Аэропорт: Михайловка. Барнаул

ICAO: UNBB

METAR:
2019-07-23 18:30:00
UNBB 231830Z 04003MPS 5000 FU SCT006 16/13 Q1003 R24/CLRD66 NOSIG RMK QFE730
METAR:
2019-07-23 17:00:00
TAF UNBB 231700Z 2318/2418 VRB01MPS 3100 BR FU SCT005 BKN020 TEMPO 2318/2404 0200 FG BKN001 BKN011CB FM240400 35005MPS 5000 FU BKN040CB TEMPO 2404/2418 3100 -SHRA BR SCT005 BKN011CB PROB40 TEMPO 2404/2418 -TSRA